Main page
METAR-TAF:

METAR-TAF

Airports :

Kithira Island National Airport

Kythira, Greece

latitude: 36-17-21N, longitude: 023-01-24E, elevation: 321 m

Current weather observation

The report was made 6 hours and 39 minutes ago, at 16:50 UTC
Wind 22 kt from the West with gusts up to 32 kt
Temperature 12°C
Humidity 71%
Pressure 1012 hPa
Visibility 10 km or more
Few clouds at a height of 1400 ft

METAR: LGKC 271650Z 27022G32KT 9999 FEW014 12/07 Q1012

Time: 01:29 (23:29 UTC)

Forecast

The report was made 3 hours and 29 minutes ago, at 20:00 UTC
Forecast valid from 27 at 21 UTC to 28 at 06 UTC
Wind 15 kt from the West
Visibility 10 km or more
Few clouds at a height of 1200 ft
Scattered clouds at a height of 1600 ft
Temporary
from 27 at 21 UTC to 28 at 03 UTC
Wind 17 kt from the West with gusts up to 27 kt

TAF: LGKC 272000Z 2721/2806 28015KT 9999 FEW012 SCT016 TEMPO 2721/2803 28017G27KT

Weather observations and forecasts of more than 4000 airports (METAR and TAF reports).

The available stations are represented by yellow and red dots on the map.

Hover mouse over dot to see the name of the station.

Then click to see weather observations and forecasts.

To change the map : click on the green buttons with a black cross to zoom in, on the green button with a dash to zoom out, or on the green arrows for adjacent maps.


METAR-TAF: